sensor_id;sensor_type;location;lat;lon;timestamp;pressure;altitude;pressure_sealevel;temperature;humidity
47753;BME280;2038;51.728;6.674;2022-12-16T00:02:26;100315.84;;;-2.18;100.00
47753;BME280;2038;51.728;6.674;2022-12-16T00:04:54;100319.34;;;-2.09;100.00
47753;BME280;2038;51.728;6.674;2022-12-16T00:07:23;100316.84;;;-2.09;100.00
47753;BME280;2038;51.728;6.674;2022-12-16T00:09:50;100315.25;;;-2.09;100.00
47753;BME280;2038;51.728;6.674;2022-12-16T00:12:18;100325.69;;;-2.04;100.00
47753;BME280;2038;51.728;6.674;2022-12-16T00:14:45;100323.53;;;-2.01;100.00
47753;BME280;2038;51.728;6.674;2022-12-16T00:17:14;100318.94;;;-2.05;100.00
47753;BME280;2038;51.728;6.674;2022-12-16T00:19:41;100321.19;;;-2.00;100.00
47753;BME280;2038;51.728;6.674;2022-12-16T00:22:10;100322.25;;;-1.98;100.00
47753;BME280;2038;51.728;6.674;2022-12-16T00:24:42;100320.78;;;-1.96;100.00
47753;BME280;2038;51.728;6.674;2022-12-16T00:27:11;100330.47;;;-1.83;100.00
47753;BME280;2038;51.728;6.674;2022-12-16T00:29:40;100317.41;;;-1.80;100.00
47753;BME280;2038;51.728;6.674;2022-12-16T00:32:08;100314.19;;;-1.79;100.00
47753;BME280;2038;51.728;6.674;2022-12-16T00:34:37;100313.97;;;-1.74;100.00
47753;BME280;2038;51.728;6.674;2022-12-16T00:37:05;100316.69;;;-1.79;100.00
47753;BME280;2038;51.728;6.674;2022-12-16T00:39:34;100320.41;;;-1.76;100.00
47753;BME280;2038;51.728;6.674;2022-12-16T00:42:03;100322.75;;;-1.77;100.00
47753;BME280;2038;51.728;6.674;2022-12-16T00:44:31;100326.59;;;-1.72;100.00
47753;BME280;2038;51.728;6.674;2022-12-16T00:47:00;100340.38;;;-1.76;100.00
47753;BME280;2038;51.728;6.674;2022-12-16T00:49:29;100334.09;;;-1.72;100.00
47753;BME280;2038;51.728;6.674;2022-12-16T00:51:56;100335.88;;;-1.71;100.00
47753;BME280;2038;51.728;6.674;2022-12-16T00:54:26;100326.56;;;-1.65;100.00
47753;BME280;2038;51.728;6.674;2022-12-16T00:56:54;100333.88;;;-1.67;100.00
47753;BME280;2038;51.728;6.674;2022-12-16T00:59:23;100327.44;;;-1.65;100.00
47753;BME280;2038;51.728;6.674;2022-12-16T01:01:50;100333.88;;;-1.67;100.00
47753;BME280;2038;51.728;6.674;2022-12-16T01:04:18;100334.59;;;-1.68;100.00
47753;BME280;2038;51.728;6.674;2022-12-16T01:06:47;100333.28;;;-1.64;100.00
47753;BME280;2038;51.728;6.674;2022-12-16T01:09:15;100334.03;;;-1.65;100.00
47753;BME280;2038;51.728;6.674;2022-12-16T01:11:42;100331.59;;;-1.72;100.00
47753;BME280;2038;51.728;6.674;2022-12-16T01:14:10;100336.28;;;-1.75;100.00
47753;BME280;2038;51.728;6.674;2022-12-16T01:16:40;100338.94;;;-1.74;100.00
47753;BME280;2038;51.728;6.674;2022-12-16T01:19:10;100339.44;;;-1.69;100.00
47753;BME280;2038;51.728;6.674;2022-12-16T01:21:39;100342.03;;;-1.61;100.00
47753;BME280;2038;51.728;6.674;2022-12-16T01:24:09;100350.47;;;-1.52;100.00
47753;BME280;2038;51.728;6.674;2022-12-16T01:26:38;100344.34;;;-1.62;100.00
47753;BME280;2038;51.728;6.674;2022-12-16T01:29:07;100343.78;;;-1.60;100.00
47753;BME280;2038;51.728;6.674;2022-12-16T01:31:36;100343.78;;;-1.60;100.00
47753;BME280;2038;51.728;6.674;2022-12-16T01:34:03;100345.38;;;-1.60;100.00
47753;BME280;2038;51.728;6.674;2022-12-16T01:36:32;100346.13;;;-1.61;100.00
47753;BME280;2038;51.728;6.674;2022-12-16T01:39:01;100356.28;;;-1.60;100.00
47753;BME280;2038;51.728;6.674;2022-12-16T01:41:27;100358.13;;;-1.66;100.00
47753;BME280;2038;51.728;6.674;2022-12-16T01:44:20;100363.53;;;-1.70;100.00
47753;BME280;2038;51.728;6.674;2022-12-16T01:46:57;100362.38;;;-1.80;100.00
47753;BME280;2038;51.728;6.674;2022-12-16T01:52:36;100355.44;;;-1.83;100.00
47753;BME280;2038;51.728;6.674;2022-12-16T01:55:23;100361.66;;;-1.79;100.00
47753;BME280;2038;51.728;6.674;2022-12-16T01:58:01;100368.59;;;-1.77;100.00
47753;BME280;2038;51.728;6.674;2022-12-16T02:00:39;100369.91;;;-1.65;100.00
47753;BME280;2038;51.728;6.674;2022-12-16T02:03:09;100370.38;;;-1.60;100.00
47753;BME280;2038;51.728;6.674;2022-12-16T02:05:42;100371.50;;;-1.65;100.00
47753;BME280;2038;51.728;6.674;2022-12-16T02:08:16;100370.03;;;-1.63;100.00
47753;BME280;2038;51.728;6.674;2022-12-16T02:10:51;100367.88;;;-1.60;100.00
47753;BME280;2038;51.728;6.674;2022-12-16T02:29:57;100384.41;;;-1.54;100.00
47753;BME280;2038;51.728;6.674;2022-12-16T02:36:18;100386.94;;;-1.76;100.00
47753;BME280;2038;51.728;6.674;2022-12-16T02:39:01;100383.63;;;-1.84;100.00
47753;BME280;2038;51.728;6.674;2022-12-16T02:41:54;100381.72;;;-1.86;100.00
47753;BME280;2038;51.728;6.674;2022-12-16T02:47:25;100388.41;;;-1.78;100.00
47753;BME280;2038;51.728;6.674;2022-12-16T02:49:55;100402.03;;;-1.68;100.00
47753;BME280;2038;51.728;6.674;2022-12-16T02:52:28;100403.25;;;-1.64;100.00
47753;BME280;2038;51.728;6.674;2022-12-16T02:55:02;100400.19;;;-1.62;100.00
47753;BME280;2038;51.728;6.674;2022-12-16T03:00:20;100403.69;;;-1.53;100.00
47753;BME280;2038;51.728;6.674;2022-12-16T03:03:06;100397.78;;;-1.53;100.00
47753;BME280;2038;51.728;6.674;2022-12-16T03:05:47;100397.31;;;-1.58;100.00
47753;BME280;2038;51.728;6.674;2022-12-16T03:08:34;100405.72;;;-1.64;100.00
47753;BME280;2038;51.728;6.674;2022-12-16T03:11:08;100404.31;;;-1.62;100.00
47753;BME280;2038;51.728;6.674;2022-12-16T03:13:43;100411.13;;;-1.68;100.00
47753;BME280;2038;51.728;6.674;2022-12-16T03:16:18;100405.28;;;-1.69;100.00
47753;BME280;2038;51.728;6.674;2022-12-16T03:18:56;100407.66;;;-1.77;100.00
47753;BME280;2038;51.728;6.674;2022-12-16T03:21:33;100405.66;;;-1.73;100.00
47753;BME280;2038;51.728;6.674;2022-12-16T03:24:14;100410.09;;;-1.70;100.00
47753;BME280;2038;51.728;6.674;2022-12-16T03:26:50;100409.91;;;-1.72;100.00
47753;BME280;2038;51.728;6.674;2022-12-16T03:29:39;100414.47;;;-1.61;100.00
47753;BME280;2038;51.728;6.674;2022-12-16T03:32:21;100407.66;;;-1.77;100.00
47753;BME280;2038;51.728;6.674;2022-12-16T03:35:30;100416.84;;;-1.85;100.00
47753;BME280;2038;51.728;6.674;2022-12-16T03:38:12;100412.63;;;-1.93;100.00
47753;BME280;2038;51.728;6.674;2022-12-16T03:40:43;100418.03;;;-1.97;100.00
47753;BME280;2038;51.728;6.674;2022-12-16T03:43:14;100413.75;;;-1.98;100.00
47753;BME280;2038;51.728;6.674;2022-12-16T03:45:44;100418.72;;;-1.98;100.00
47753;BME280;2038;51.728;6.674;2022-12-16T03:48:15;100421.63;;;-2.02;100.00
47753;BME280;2038;51.728;6.674;2022-12-16T03:50:46;100413.06;;;-2.04;100.00
47753;BME280;2038;51.728;6.674;2022-12-16T03:53:12;100420.47;;;-2.13;100.00
47753;BME280;2038;51.728;6.674;2022-12-16T03:55:41;100427.16;;;-2.27;100.00
47753;BME280;2038;51.728;6.674;2022-12-16T03:58:11;100424.00;;;-2.33;100.00
47753;BME280;2038;51.728;6.674;2022-12-16T04:00:40;100422.94;;;-2.36;100.00
47753;BME280;2038;51.728;6.674;2022-12-16T04:03:06;100423.16;;;-2.41;100.00
47753;BME280;2038;51.728;6.674;2022-12-16T04:05:34;100434.69;;;-2.34;100.00
47753;BME280;2038;51.728;6.674;2022-12-16T04:08:03;100429.13;;;-2.32;100.00
47753;BME280;2038;51.728;6.674;2022-12-16T04:10:35;100429.00;;;-2.33;100.00
47753;BME280;2038;51.728;6.674;2022-12-16T04:13:22;100433.34;;;-2.47;100.00
47753;BME280;2038;51.728;6.674;2022-12-16T04:16:12;100426.91;;;-2.45;100.00
47753;BME280;2038;51.728;6.674;2022-12-16T04:19:03;100433.53;;;-2.45;100.00
47753;BME280;2038;51.728;6.674;2022-12-16T04:21:50;100429.28;;;-2.53;100.00
47753;BME280;2038;51.728;6.674;2022-12-16T04:24:36;100440.50;;;-2.57;100.00
47753;BME280;2038;51.728;6.674;2022-12-16T04:27:06;100444.78;;;-2.56;100.00
47753;BME280;2038;51.728;6.674;2022-12-16T04:29:53;100450.66;;;-2.55;100.00
47753;BME280;2038;51.728;6.674;2022-12-16T04:32:42;100443.88;;;-2.49;100.00
47753;BME280;2038;51.728;6.674;2022-12-16T04:35:32;100455.28;;;-2.51;100.00
47753;BME280;2038;51.728;6.674;2022-12-16T04:38:19;100453.84;;;-2.49;100.00
47753;BME280;2038;51.728;6.674;2022-12-16T04:41:06;100459.75;;;-2.56;100.00
47753;BME280;2038;51.728;6.674;2022-12-16T04:43:53;100468.44;;;-2.45;100.00
47753;BME280;2038;51.728;6.674;2022-12-16T04:46:39;100463.78;;;-2.42;100.00
47753;BME280;2038;51.728;6.674;2022-12-16T04:49:23;100475.19;;;-2.44;100.00
47753;BME280;2038;51.728;6.674;2022-12-16T04:52:10;100470.38;;;-2.43;100.00
47753;BME280;2038;51.728;6.674;2022-12-16T04:54:57;100463.78;;;-2.42;100.00
47753;BME280;2038;51.728;6.674;2022-12-16T04:57:51;100474.66;;;-2.42;100.00
47753;BME280;2038;51.728;6.674;2022-12-16T05:00:43;100470.00;;;-2.39;100.00
47753;BME280;2038;51.728;6.674;2022-12-16T05:03:35;100466.28;;;-2.42;100.00
47753;BME280;2038;51.728;6.674;2022-12-16T05:06:25;100465.44;;;-2.50;100.00
47753;BME280;2038;51.728;6.674;2022-12-16T05:09:13;100472.91;;;-2.50;100.00
47753;BME280;2038;51.728;6.674;2022-12-16T05:12:04;100465.63;;;-2.55;100.00
47753;BME280;2038;51.728;6.674;2022-12-16T05:14:56;100475.84;;;-2.61;100.00
47753;BME280;2038;51.728;6.674;2022-12-16T05:17:45;100476.88;;;-2.59;100.00
47753;BME280;2038;51.728;6.674;2022-12-16T05:20:35;100480.94;;;-2.52;100.00
47753;BME280;2038;51.728;6.674;2022-12-16T05:23:23;100489.50;;;-2.50;100.00
47753;BME280;2038;51.728;6.674;2022-12-16T05:26:11;100499.25;;;-2.45;100.00
47753;BME280;2038;51.728;6.674;2022-12-16T05:29:05;100494.44;;;-2.43;100.00
47753;BME280;2038;51.728;6.674;2022-12-16T05:31:54;100501.53;;;-2.39;100.00
47753;BME280;2038;51.728;6.674;2022-12-16T05:34:43;100488.69;;;-2.35;100.00
47753;BME280;2038;51.728;6.674;2022-12-16T05:37:31;100504.72;;;-2.33;100.00
47753;BME280;2038;51.728;6.674;2022-12-16T05:40:18;100509.34;;;-2.29;100.00
47753;BME280;2038;51.728;6.674;2022-12-16T05:43:11;100511.78;;;-2.22;100.00
47753;BME280;2038;51.728;6.674;2022-12-16T05:45:56;100516.47;;;-2.02;100.00
47753;BME280;2038;51.728;6.674;2022-12-16T05:48:49;100513.09;;;-2.03;100.00
47753;BME280;2038;51.728;6.674;2022-12-16T05:51:37;100525.06;;;-2.07;100.00
47753;BME280;2038;51.728;6.674;2022-12-16T05:54:22;100519.69;;;-2.03;100.00
47753;BME280;2038;51.728;6.674;2022-12-16T05:57:06;100527.75;;;-2.06;100.00
47753;BME280;2038;51.728;6.674;2022-12-16T05:59:51;100525.91;;;-2.00;100.00
47753;BME280;2038;51.728;6.674;2022-12-16T06:02:36;100533.25;;;-2.01;100.00
47753;BME280;2038;51.728;6.674;2022-12-16T06:05:20;100533.19;;;-1.94;100.00
47753;BME280;2038;51.728;6.674;2022-12-16T06:08:05;100545.16;;;-1.99;100.00
47753;BME280;2038;51.728;6.674;2022-12-16T06:10:51;100548.94;;;-2.02;100.00
47753;BME280;2038;51.728;6.674;2022-12-16T06:13:38;100548.94;;;-2.02;100.00
47753;BME280;2038;51.728;6.674;2022-12-16T06:16:25;100546.25;;;-2.04;100.00
47753;BME280;2038;51.728;6.674;2022-12-16T06:19:12;100549.38;;;-2.13;100.00
47753;BME280;2038;51.728;6.674;2022-12-16T06:21:59;100549.56;;;-2.19;100.00
47753;BME280;2038;51.728;6.674;2022-12-16T06:24:43;100548.34;;;-2.22;100.00
47753;BME280;2038;51.728;6.674;2022-12-16T06:27:31;100547.78;;;-2.20;100.00
47753;BME280;2038;51.728;6.674;2022-12-16T06:30:18;100556.53;;;-2.23;100.00
47753;BME280;2038;51.728;6.674;2022-12-16T06:33:05;100553.00;;;-2.25;100.00
47753;BME280;2038;51.728;6.674;2022-12-16T06:35:55;100551.91;;;-2.27;100.00
47753;BME280;2038;51.728;6.674;2022-12-16T06:38:48;100560.47;;;-2.25;100.00
47753;BME280;2038;51.728;6.674;2022-12-16T06:41:35;100564.91;;;-2.23;100.00
47753;BME280;2038;51.728;6.674;2022-12-16T06:44:23;100563.81;;;-2.18;100.00
47753;BME280;2038;51.728;6.674;2022-12-16T06:47:08;100570.38;;;-2.11;100.00
47753;BME280;2038;51.728;6.674;2022-12-16T06:49:53;100575.13;;;-1.99;100.00
47753;BME280;2038;51.728;6.674;2022-12-16T06:52:45;100574.53;;;-1.89;100.00
47753;BME280;2038;51.728;6.674;2022-12-16T06:55:32;100576.81;;;-1.83;100.00
47753;BME280;2038;51.728;6.674;2022-12-16T06:58:22;100582.88;;;-1.81;100.00
47753;BME280;2038;51.728;6.674;2022-12-16T07:01:14;100585.38;;;-1.81;100.00
47753;BME280;2038;51.728;6.674;2022-12-16T07:04:02;100589.59;;;-1.73;100.00
47753;BME280;2038;51.728;6.674;2022-12-16T07:06:50;100585.50;;;-1.73;100.00
47753;BME280;2038;51.728;6.674;2022-12-16T07:09:38;100596.16;;;-1.67;100.00
47753;BME280;2038;51.728;6.674;2022-12-16T07:12:23;100596.84;;;-1.68;100.00
47753;BME280;2038;51.728;6.674;2022-12-16T07:15:08;100598.84;;;-1.72;100.00
47753;BME280;2038;51.728;6.674;2022-12-16T07:17:53;100611.34;;;-1.72;100.00
47753;BME280;2038;51.728;6.674;2022-12-16T07:20:37;100609.03;;;-1.71;100.00
47753;BME280;2038;51.728;6.674;2022-12-16T07:23:22;100612.09;;;-1.73;100.00
47753;BME280;2038;51.728;6.674;2022-12-16T07:26:07;100627.59;;;-1.69;100.00
47753;BME280;2038;51.728;6.674;2022-12-16T07:28:52;100627.59;;;-1.69;100.00
47753;BME280;2038;51.728;6.674;2022-12-16T07:31:37;100636.81;;;-1.61;100.00
47753;BME280;2038;51.728;6.674;2022-12-16T07:34:22;100642.19;;;-1.65;100.00
47753;BME280;2038;51.728;6.674;2022-12-16T07:37:08;100651.81;;;-1.61;100.00
47753;BME280;2038;51.728;6.674;2022-12-16T07:39:52;100656.22;;;-1.58;100.00
47753;BME280;2038;51.728;6.674;2022-12-16T07:42:39;100648.91;;;-1.57;100.00
47753;BME280;2038;51.728;6.674;2022-12-16T07:45:25;100655.84;;;-1.54;100.00
47753;BME280;2038;51.728;6.674;2022-12-16T07:48:10;100656.50;;;-1.48;100.00
47753;BME280;2038;51.728;6.674;2022-12-16T07:50:55;100659.91;;;-1.48;100.00
47753;BME280;2038;51.728;6.674;2022-12-16T07:53:40;100667.75;;;-1.45;100.00
47753;BME280;2038;51.728;6.674;2022-12-16T07:56:24;100663.94;;;-1.34;100.00
47753;BME280;2038;51.728;6.674;2022-12-16T07:59:10;100666.47;;;-1.41;100.00
47753;BME280;2038;51.728;6.674;2022-12-16T08:01:54;100677.69;;;-1.37;100.00
47753;BME280;2038;51.728;6.674;2022-12-16T08:04:42;100677.13;;;-1.35;100.00
47753;BME280;2038;51.728;6.674;2022-12-16T08:07:31;100684.97;;;-1.32;100.00
47753;BME280;2038;51.728;6.674;2022-12-16T08:10:31;100694.44;;;-1.29;100.00
47753;BME280;2038;51.728;6.674;2022-12-16T08:13:20;100694.06;;;-1.25;100.00
47753;BME280;2038;51.728;6.674;2022-12-16T08:16:07;100700.28;;;-1.22;100.00
47753;BME280;2038;51.728;6.674;2022-12-16T08:18:56;100707.44;;;-1.25;100.00
47753;BME280;2038;51.728;6.674;2022-12-16T08:21:45;100706.16;;;-1.21;100.00
47753;BME280;2038;51.728;6.674;2022-12-16T08:24:31;100715.66;;;-1.26;100.00
47753;BME280;2038;51.728;6.674;2022-12-16T08:27:15;100716.69;;;-1.17;100.00
47753;BME280;2038;51.728;6.674;2022-12-16T08:30:01;100715.72;;;-1.10;100.00
47753;BME280;2038;51.728;6.674;2022-12-16T08:32:47;100715.84;;;-1.02;100.00
47753;BME280;2038;51.728;6.674;2022-12-16T08:35:32;100723.34;;;-1.02;100.00
47753;BME280;2038;51.728;6.674;2022-12-16T08:38:27;100729.38;;;-1.00;100.00
47753;BME280;2038;51.728;6.674;2022-12-16T08:41:19;100729.56;;;-0.98;100.00
47753;BME280;2038;51.728;6.674;2022-12-16T08:44:27;100737.97;;;-0.98;100.00
47753;BME280;2038;51.728;6.674;2022-12-16T08:47:11;100742.78;;;-0.99;100.00
47753;BME280;2038;51.728;6.674;2022-12-16T08:49:59;100743.88;;;-0.97;100.00
47753;BME280;2038;51.728;6.674;2022-12-16T08:52:45;100741.13;;;-0.91;100.00
47753;BME280;2038;51.728;6.674;2022-12-16T08:55:31;100750.91;;;-0.86;100.00
47753;BME280;2038;51.728;6.674;2022-12-16T08:58:18;100758.44;;;-0.86;100.00
47753;BME280;2038;51.728;6.674;2022-12-16T09:01:08;100764.09;;;-0.80;100.00
47753;BME280;2038;51.728;6.674;2022-12-16T09:04:22;100766.19;;;-0.76;100.00
47753;BME280;2038;51.728;6.674;2022-12-16T09:07:10;100766.56;;;-0.73;100.00
47753;BME280;2038;51.728;6.674;2022-12-16T09:09:58;100775.44;;;-0.68;100.00
47753;BME280;2038;51.728;6.674;2022-12-16T09:12:50;100776.72;;;-0.71;100.00
47753;BME280;2038;51.728;6.674;2022-12-16T09:15:40;100776.56;;;-0.73;100.00
47753;BME280;2038;51.728;6.674;2022-12-16T09:18:31;100774.94;;;-0.72;100.00
47753;BME280;2038;51.728;6.674;2022-12-16T09:21:26;100781.19;;;-0.69;100.00
47753;BME280;2038;51.728;6.674;2022-12-16T09:24:16;100786.66;;;-0.64;100.00
47753;BME280;2038;51.728;6.674;2022-12-16T09:27:02;100785.78;;;-0.65;100.00
47753;BME280;2038;51.728;6.674;2022-12-16T09:29:52;100790.03;;;-0.57;100.00
47753;BME280;2038;51.728;6.674;2022-12-16T09:32:50;100792.84;;;-0.54;100.00
47753;BME280;2038;51.728;6.674;2022-12-16T09:35:54;100797.97;;;-0.45;100.00
47753;BME280;2038;51.728;6.674;2022-12-16T09:38:42;100797.97;;;-0.45;100.00
47753;BME280;2038;51.728;6.674;2022-12-16T09:41:43;100806.56;;;-0.27;100.00
47753;BME280;2038;51.728;6.674;2022-12-16T09:44:59;100808.16;;;-0.28;100.00
47753;BME280;2038;51.728;6.674;2022-12-16T09:51:02;100819.16;;;-0.34;100.00
47753;BME280;2038;51.728;6.674;2022-12-16T09:53:51;100821.25;;;-0.30;100.00
47753;BME280;2038;51.728;6.674;2022-12-16T09:56:39;100833.31;;;-0.19;100.00
47753;BME280;2038;51.728;6.674;2022-12-16T09:59:33;100826.69;;;-0.19;100.00
47753;BME280;2038;51.728;6.674;2022-12-16T10:02:24;100825.59;;;-0.14;100.00
47753;BME280;2038;51.728;6.674;2022-12-16T10:05:12;100828.28;;;-0.12;100.00
47753;BME280;2038;51.728;6.674;2022-12-16T10:08:34;100825.41;;;-0.15;100.00
47753;BME280;2038;51.728;6.674;2022-12-16T10:15:11;100830.13;;;-0.03;100.00
47753;BME280;2038;51.728;6.674;2022-12-16T10:18:11;100839.59;;;0.00;100.00
47753;BME280;2038;51.728;6.674;2022-12-16T10:21:04;100834.66;;;0.09;100.00
47753;BME280;2038;51.728;6.674;2022-12-16T10:24:14;100835.88;;;0.12;100.00
47753;BME280;2038;51.728;6.674;2022-12-16T10:27:16;100836.38;;;0.17;100.00
47753;BME280;2038;51.728;6.674;2022-12-16T10:30:12;100846.34;;;0.24;100.00
47753;BME280;2038;51.728;6.674;2022-12-16T10:32:58;100847.69;;;0.29;100.00
47753;BME280;2038;51.728;6.674;2022-12-16T10:35:45;100853.38;;;0.35;100.00
47753;BME280;2038;51.728;6.674;2022-12-16T10:38:53;100844.16;;;0.42;100.00
47753;BME280;2038;51.728;6.674;2022-12-16T10:41:44;100850.16;;;0.52;100.00
47753;BME280;2038;51.728;6.674;2022-12-16T10:44:43;100842.47;;;0.50;100.00
47753;BME280;2038;51.728;6.674;2022-12-16T10:47:35;100852.97;;;0.55;100.00
47753;BME280;2038;51.728;6.674;2022-12-16T10:50:27;100858.63;;;0.61;100.00
47753;BME280;2038;51.728;6.674;2022-12-16T10:53:18;100850.69;;;0.65;100.00
47753;BME280;2038;51.728;6.674;2022-12-16T10:59:20;100849.66;;;0.63;100.00
47753;BME280;2038;51.728;6.674;2022-12-16T11:02:20;100848.53;;;0.68;100.00
47753;BME280;2038;51.728;6.674;2022-12-16T11:11:26;100846.16;;;0.69;100.00
47753;BME280;2038;51.728;6.674;2022-12-16T11:14:30;100847.88;;;0.77;100.00
47753;BME280;2038;51.728;6.674;2022-12-16T11:20:26;100848.59;;;0.92;100.00
47753;BME280;2038;51.728;6.674;2022-12-16T11:23:22;100848.91;;;0.95;100.00
47753;BME280;2038;51.728;6.674;2022-12-16T11:26:13;100857.81;;;1.00;100.00
47753;BME280;2038;51.728;6.674;2022-12-16T11:29:14;100860.31;;;1.00;100.00
47753;BME280;2038;51.728;6.674;2022-12-16T11:32:21;100861.84;;;1.07;100.00
47753;BME280;2038;51.728;6.674;2022-12-16T11:35:16;100862.88;;;1.09;100.00
47753;BME280;2038;51.728;6.674;2022-12-16T11:38:05;100865.25;;;1.07;100.00
47753;BME280;2038;51.728;6.674;2022-12-16T11:40:59;100872.91;;;1.09;100.00
47753;BME280;2038;51.728;6.674;2022-12-16T11:43:48;100868.06;;;1.10;100.00
47753;BME280;2038;51.728;6.674;2022-12-16T11:46:35;100865.97;;;1.06;100.00
47753;BME280;2038;51.728;6.674;2022-12-16T11:49:31;100872.50;;;0.97;100.00
47753;BME280;2038;51.728;6.674;2022-12-16T11:52:20;100864.19;;;0.89;100.00
47753;BME280;2038;51.728;6.674;2022-12-16T11:55:24;100864.06;;;0.88;100.00
47753;BME280;2038;51.728;6.674;2022-12-16T12:04:14;100869.22;;;0.89;100.00
47753;BME280;2038;51.728;6.674;2022-12-16T12:07:34;100875.78;;;0.96;100.00
47753;BME280;2038;51.728;6.674;2022-12-16T12:11:07;100870.00;;;0.97;100.00
47753;BME280;2038;51.728;6.674;2022-12-16T12:14:35;100872.88;;;1.00;100.00
47753;BME280;2038;51.728;6.674;2022-12-16T12:21:14;100884.00;;;1.11;100.00
47753;BME280;2038;51.728;6.674;2022-12-16T12:24:28;100880.00;;;1.28;100.00
47753;BME280;2038;51.728;6.674;2022-12-16T12:27:36;100884.63;;;1.17;100.00
47753;BME280;2038;51.728;6.674;2022-12-16T12:30:42;100889.00;;;1.26;100.00
47753;BME280;2038;51.728;6.674;2022-12-16T12:37:19;100890.91;;;1.29;100.00
47753;BME280;2038;51.728;6.674;2022-12-16T12:40:37;100896.41;;;1.33;100.00
47753;BME280;2038;51.728;6.674;2022-12-16T12:47:12;100896.28;;;1.32;100.00
47753;BME280;2038;51.728;6.674;2022-12-16T12:50:09;100895.69;;;1.34;100.00
47753;BME280;2038;51.728;6.674;2022-12-16T12:59:26;100909.69;;;1.32;100.00
47753;BME280;2038;51.728;6.674;2022-12-16T13:05:45;100905.25;;;1.30;100.00
47753;BME280;2038;51.728;6.674;2022-12-16T13:11:36;100908.97;;;1.33;100.00
47753;BME280;2038;51.728;6.674;2022-12-16T13:17:17;100905.16;;;1.37;100.00
47753;BME280;2038;51.728;6.674;2022-12-16T13:23:31;100913.16;;;1.41;100.00
47753;BME280;2038;51.728;6.674;2022-12-16T13:26:21;100924.28;;;1.44;100.00
47753;BME280;2038;51.728;6.674;2022-12-16T13:29:27;100923.19;;;1.41;100.00
47753;BME280;2038;51.728;6.674;2022-12-16T13:32:22;100922.25;;;1.48;100.00
47753;BME280;2038;51.728;6.674;2022-12-16T13:38:03;100932.09;;;1.47;100.00
47753;BME280;2038;51.728;6.674;2022-12-16T13:40:57;100944.72;;;1.55;100.00
47753;BME280;2038;51.728;6.674;2022-12-16T13:43:58;100946.53;;;1.56;100.00
47753;BME280;2038;51.728;6.674;2022-12-16T13:46:47;100944.56;;;1.54;100.00
47753;BME280;2038;51.728;6.674;2022-12-16T13:55:56;100953.88;;;1.55;100.00
47753;BME280;2038;51.728;6.674;2022-12-16T13:59:00;100959.06;;;1.56;100.00
47753;BME280;2038;51.728;6.674;2022-12-16T14:05:26;100962.69;;;1.67;100.00
47753;BME280;2038;51.728;6.674;2022-12-16T14:08:17;100966.09;;;1.67;100.00
47753;BME280;2038;51.728;6.674;2022-12-16T14:11:22;100970.88;;;1.57;100.00
47753;BME280;2038;51.728;6.674;2022-12-16T14:14:30;100968.63;;;1.52;100.00
47753;BME280;2038;51.728;6.674;2022-12-16T14:17:39;100974.97;;;1.48;100.00
47753;BME280;2038;51.728;6.674;2022-12-16T14:20:42;100978.75;;;1.45;100.00
47753;BME280;2038;51.728;6.674;2022-12-16T14:24:09;100993.69;;;1.43;100.00
47753;BME280;2038;51.728;6.674;2022-12-16T14:27:18;100999.00;;;1.46;100.00
47753;BME280;2038;51.728;6.674;2022-12-16T14:30:18;100999.63;;;1.68;100.00
47753;BME280;2038;51.728;6.674;2022-12-16T14:33:24;101002.16;;;1.68;100.00
47753;BME280;2038;51.728;6.674;2022-12-16T14:36:26;101011.44;;;1.69;100.00
47753;BME280;2038;51.728;6.674;2022-12-16T14:39:23;101015.53;;;1.60;100.00
47753;BME280;2038;51.728;6.674;2022-12-16T14:42:29;101014.75;;;1.52;100.00
47753;BME280;2038;51.728;6.674;2022-12-16T14:48:35;101020.88;;;1.63;100.00
47753;BME280;2038;51.728;6.674;2022-12-16T14:51:27;101020.56;;;1.60;100.00
47753;BME280;2038;51.728;6.674;2022-12-16T14:54:22;101023.63;;;1.57;100.00
47753;BME280;2038;51.728;6.674;2022-12-16T15:00:14;101039.16;;;1.62;100.00
47753;BME280;2038;51.728;6.674;2022-12-16T15:03:07;101044.78;;;1.59;100.00
47753;BME280;2038;51.728;6.674;2022-12-16T15:06:06;101053.75;;;1.57;100.00
47753;BME280;2038;51.728;6.674;2022-12-16T15:09:03;101059.53;;;1.56;100.00
47753;BME280;2038;51.728;6.674;2022-12-16T15:11:52;101059.78;;;1.51;100.00
47753;BME280;2038;51.728;6.674;2022-12-16T15:14:39;101062.03;;;1.40;100.00
47753;BME280;2038;51.728;6.674;2022-12-16T15:20:36;101067.78;;;1.39;100.00
47753;BME280;2038;51.728;6.674;2022-12-16T15:23:32;101067.38;;;1.44;100.00
47753;BME280;2038;51.728;6.674;2022-12-16T15:26:19;101061.56;;;1.36;100.00
47753;BME280;2038;51.728;6.674;2022-12-16T15:29:36;101070.72;;;1.35;100.00
47753;BME280;2038;51.728;6.674;2022-12-16T15:35:29;101078.66;;;1.47;100.00
47753;BME280;2038;51.728;6.674;2022-12-16T15:38:29;101093.00;;;1.48;100.00
47753;BME280;2038;51.728;6.674;2022-12-16T15:41:45;101089.25;;;1.45;100.00
47753;BME280;2038;51.728;6.674;2022-12-16T15:44:30;101090.03;;;1.36;100.00
47753;BME280;2038;51.728;6.674;2022-12-16T15:47:30;101095.81;;;1.35;100.00
47753;BME280;2038;51.728;6.674;2022-12-16T15:50:21;101101.34;;;1.40;100.00
47753;BME280;2038;51.728;6.674;2022-12-16T15:53:31;101101.06;;;1.46;100.00
47753;BME280;2038;51.728;6.674;2022-12-16T15:56:40;101102.69;;;1.45;100.00
47753;BME280;2038;51.728;6.674;2022-12-16T15:59:55;101102.94;;;1.39;100.00
47753;BME280;2038;51.728;6.674;2022-12-16T16:02:52;101103.66;;;1.38;100.00
47753;BME280;2038;51.728;6.674;2022-12-16T16:05:37;101116.00;;;1.28;100.00
47753;BME280;2038;51.728;6.674;2022-12-16T16:08:21;101121.53;;;1.26;100.00
47753;BME280;2038;51.728;6.674;2022-12-16T16:11:07;101114.91;;;1.26;100.00
47753;BME280;2038;51.728;6.674;2022-12-16T16:13:52;101121.00;;;1.28;100.00
47753;BME280;2038;51.728;6.674;2022-12-16T16:16:36;101117.84;;;1.38;100.00
47753;BME280;2038;51.728;6.674;2022-12-16T16:19:24;101126.84;;;1.36;100.00
47753;BME280;2038;51.728;6.674;2022-12-16T16:22:19;101129.34;;;1.36;100.00
47753;BME280;2038;51.728;6.674;2022-12-16T16:25:04;101124.78;;;1.40;100.00
47753;BME280;2038;51.728;6.674;2022-12-16T16:27:48;101128.38;;;1.42;100.00